events-overview

Enka Sprint at Biltmore Lake

 

Overall Men

Biltmore Lake - Asheville, NC 6/14/2008 09:00AM

** Results are for the private use of participants and are the Intellectual Property of Set Up Events. Unauthorized use of these results is prohibited.

Place Bib Cod Ag NAME CITY/STATE Rank SWIM T1 Rank BIKE T2 Rank RUN PENALTY TIME DQ
1140 29KEVIN LISSKAFLETCHER NC100:10:0600:00:39100:48:0900:00:44600:18:22 01:17:58 
2158 33BRAD MILLERFAIRVIEW NC1000:12:1900:00:44200:48:3000:00:25300:17:54 01:19:50 
3145 22JOSHUA MARCUSMILL SPRING NC200:11:0600:00:32300:49:4200:00:30400:18:08 01:19:56 
4106 21WILLIAM HARRISONASHEVILLE NC700:11:5200:00:40400:50:0300:00:33700:18:24 01:21:31 
56 28AUBREY ALDYCHARLOTTE NC2800:14:2200:00:50800:51:5100:00:38200:16:49 01:24:29 
6125 32JASON JENKINSKINGSPORT TN1100:12:1900:00:481100:52:4500:00:311000:19:23 01:25:44 
7195 34JOHN ROBERTSONHOUSTON TX1400:12:2900:01:021800:54:2500:00:46500:18:22 01:27:03 
869 28DAVID DIRITODURHAM NC1200:12:2300:00:481400:53:5100:00:431400:20:34 01:28:16 
9164 56DALE MOSHERANDERSON SC1900:13:0800:00:52700:51:5000:00:462800:21:49 01:28:23 
10104 38DAVID HALLSIMPSONVILLE SC400:11:3000:00:591300:53:4200:00:582700:21:43 01:28:50 
11120 30RYAN HURLEYSALEM VA4100:15:2300:01:221000:51:5600:00:491100:19:25 01:28:53 
12293 24VICTOR MCHENRYASHEVILLE SC1700:12:4900:01:093900:57:2700:01:14100:16:28 01:29:05 
13263 26SCOTT WOODBURYCHARLOTTE NC500:11:4500:00:534000:57:2800:00:44800:18:33 01:29:21 
14258 30TODD WILKINSONCHAPEL HILL NC800:12:1400:00:553800:57:2300:00:59900:19:09 01:30:38 
15154 34JASON MEHLERASHEVILLE NC1500:12:3200:01:052800:56:0800:00:441800:20:59 01:31:26 
1632 44DAVID BROWNVALDESE NC2100:13:5500:01:001900:54:2600:00:502500:21:38 01:31:47 
17105 51LECKY HALLERASHEVILLE NC5600:16:1600:00:33900:51:5200:00:463600:22:38 01:32:03 
1889 53RICHARD GERARDICHARLOTTE NC9400:18:2400:00:44600:51:4300:00:331900:21:18 01:32:40 
19136 43MARK LEDYARDASHEVILLE NC4500:15:3900:01:292100:55:0400:00:531300:19:54 01:32:57 
20137 24GREGORY LEECHPINEHURST NC3500:14:4400:00:462300:55:4300:00:372400:21:35 01:33:23 
21204 44KEITH SCOTTMORGANTON NC2200:13:5800:01:002500:55:5700:01:012100:21:30 01:33:24 
2213 16ZACHARY ARENSMANRUTHERFORD COLLEGE NC1600:12:4700:00:422900:56:0900:00:473900:23:04 01:33:27 
23301 28VINCE MAZZUCAASHEVILLE NC5000:15:5400:02:231200:53:3000:01:071600:20:48 01:33:40 
24118 29RALF HORSTKEMPERASHEVILLE NC2000:13:4800:01:003100:56:1600:00:403200:22:27 01:34:08 
2519 39CHRISTOPHER BATTISTAHENDERSONVILLE NC900:12:1500:00:533700:57:2200:00:474100:23:04 01:34:19 
2650 37WILLIAM CONNOLLYWAXHAW NC1800:12:5000:00:584200:58:2000:00:512000:21:29 01:34:26 
27191 37MATT ROANEARDEN NC5500:16:1200:01:413000:56:1500:00:471200:19:39 01:34:33 
28163C29KYLE MOODYCANDLER NC2700:14:2000:00:411700:54:1200:00:406100:24:48 01:34:39 
29203 55WANE SCHNEITERLEXINGTON VA3700:15:0000:00:392200:55:2400:00:494200:23:15 01:35:04 
30114 30DAVID HIBBSFLETCHER NC6300:16:2900:01:132000:54:4400:00:523000:22:17 01:35:33 
PlaceBibCodAgNAMECITY/STATERankSWIMT1RankBIKET2RankRUNPENALTYTIMEDQ
3130 38GRANT BRIDGWOODASHEVILLE NC4700:15:4200:01:163600:57:1600:01:061500:20:36 01:35:54 
32296 38DOUG VREELANDWINSTON-SALEM NC3100:14:2900:00:594600:58:4800:00:522300:21:32 01:36:38 
33192 47DEWAYNE ROBERSONENKA NC7900:16:5800:02:401600:54:0800:01:242900:22:03 01:37:10 
34259 50KENT WILLIAMSHENDERSONVILLE NC8700:17:4000:02:03500:51:1800:02:055800:24:39 01:37:42 
3553 28ANDREW CORBINHIGH POINT NC4300:15:3200:01:462400:55:5700:01:204300:23:16 01:37:49 
36297 25JOHN WESTBROOKSGREENVILLE SC5700:16:1800:01:033200:56:3100:00:524400:23:19 01:38:00 
37291 32CHAD GROHNEVIXOR ID7000:16:4100:01:243500:57:1200:01:052600:21:40 01:38:01 
38213 29JESSE SMITHFOUNTAIN INN SC6100:16:2800:01:012600:55:5800:00:536000:24:45 01:39:02 
39159 53JOE MILLERFAIRVIEW NC8800:17:4500:01:131500:54:0600:00:596400:25:02 01:39:03 
40135 45MATTHEW LEDFORDCANDLER NC2500:14:1400:01:075801:00:1800:01:024600:23:39 01:40:18 
41231 30KRISTOFER THOMPSONASHEVILLE NC5100:15:5800:01:165400:59:4900:00:583500:22:31 01:40:31 
42113 31BEACH HENSLEYASHEVILLE NC8400:17:1000:00:534300:58:2500:01:014000:23:04 01:40:31 
43178 44JOHN PONTZERWILKESBORO NC6900:16:4000:01:523400:56:5400:01:055400:24:24 01:40:54 
44298 39CARY GENTRYSUMMERFIELD NC4900:15:5300:00:496601:02:0200:00:512200:21:31 01:41:04 
45115 39BRIAN HIGGSELIZABETHTON TN5800:16:1900:00:493300:56:4000:00:548000:26:24 01:41:05 
4612 43TODD ARENSMANRUTHERFORD COLLEGE NC3000:14:2800:00:575200:59:2700:00:556900:25:35 01:41:20 
47268 36JAYSON YOUNGSIMPSONVILLE SC6500:16:3200:01:254500:58:4100:01:144900:23:53 01:41:43 
4810 36ED ARELLANOASHEVILLE NC11100:19:2700:02:214100:58:0500:01:051700:20:50 01:41:45 
49292 32EDWARD PARKASHEVILLE NC7300:16:4700:02:114800:59:0000:01:303300:22:28 01:41:53 
5058 29JERUD CRANDALLASHEVILLE NC3900:15:0900:00:555100:59:2600:00:427300:25:50 01:42:00 
5122 16ERIK BIGGSCLAYTON NC600:11:4800:01:147901:04:2400:00:595100:24:00 01:42:24 
52221 15CONNOR STEMPLEHICKORY NC2900:14:2400:01:017301:03:1400:01:043800:22:44 01:42:25 
53200 60WILLIAM SAUBERFAIRVIEW NC7600:16:5400:02:125000:59:1800:00:555700:24:29 01:43:46 
5417 41RICHARD BAKERASHEVILLE NC5400:16:1100:02:036101:00:2600:01:304800:23:51 01:43:58 
55202 33JEREMY SCHLIEPSIEKFRANKLIN NC6200:16:2800:02:015500:59:5400:01:265500:24:28 01:44:15 
56139 31NEAL LEIFHEITFOUNTAIN INN SC11700:19:4400:01:494900:59:1700:01:153400:22:30 01:44:34 
57257 29NICK WILKINSONASHEVILLE NC9100:18:0100:02:532700:56:0200:01:188100:26:25 01:44:36 
58171C39HUDSON OWENASHEVILLE NC3600:14:5800:01:055601:00:0300:00:479300:28:08 01:44:58 
59149 24CODY MCCLUNGHENDERSONVILLE NC8000:16:5900:00:525300:59:3700:00:408600:26:57 01:45:03 
60166 38SEAN MULLENMOUNT HOLLY NC6700:16:3800:02:196201:01:2000:01:134700:23:45 01:45:13 
6152 53GLENN COOKDECATUR GA3400:14:4300:01:326301:01:3800:00:598500:26:51 01:45:41 
PlaceBibCodAgNAMECITY/STATERankSWIMT1RankBIKET2RankRUNPENALTYTIMEDQ
62144MC43STEPHEN MAAGASHEVILLE NC4200:15:2800:01:347001:02:4300:01:286600:25:15 01:46:27 
6387 29ADAM GARRYASHEVILLE NC11000:19:2600:03:304400:58:4100:00:396300:24:53 01:47:06 
64123 30ADAM JACQUESCHARLOTTE NC6400:16:2900:01:517701:03:4300:01:075000:23:58 01:47:07 
65217 47TIMOTHY SMITHHILLSBOROUGH NC9900:18:4000:01:195701:00:1700:01:177200:25:47 01:47:19 
6697 43ALLEN GRAYASHEVILLE NC11800:19:4400:02:036001:00:2500:01:145200:24:11 01:47:35 
67266 47SCOTT YATESROUND ROCK TX4400:15:3600:01:425901:00:1800:01:2210700:29:14 01:48:09 
6893 28BRETT GOMBARBLACKSBURG VA1300:12:2700:01:278901:06:4100:01:187800:26:21 01:48:12 
694 18TANNER ADAMSONASHEVILLE NC300:11:1100:02:059901:08:1000:01:207100:25:45 01:48:29 
70141 35THOMAS LOCKHARTGREENVILLE SC8100:17:0200:01:066501:01:5800:00:589100:27:31 01:48:32 
7175 42JACO-LOUIS ENGELBRECHTHIGH POINT NC11400:19:3500:01:496401:01:4800:00:446500:25:06 01:49:00 
72229 41DON TAYLORASHEVILLE NC9200:18:0200:01:504700:58:5500:01:2610800:29:24 01:49:35 
73209 40THOMAS SHERWOODBILOXI MS7400:16:5000:01:417401:03:1900:02:167400:25:55 01:49:59 
7464 48STEPHEN DEANCARY NC10300:18:5900:01:366801:02:0800:01:188200:26:25 01:50:24 
75197 40CRAIG ROTTMUELLERSWANNANOA NC9800:18:3900:02:006901:02:4000:01:398300:26:35 01:51:31 
76100 31JONATHAN GREGORYGREENVILLE SC6000:16:2700:01:237501:03:2500:01:1711200:29:43 01:52:13 
7773MC46MARTYN EASTONLENOIR NC12400:20:0800:00:566701:02:0500:00:459800:28:35 01:52:27 
7891 41DAVID GLONTZCHARLOTTE NC7800:16:5700:02:328801:06:2200:01:216800:25:17 01:52:27 
79238 30ADAM VAN SLYKECARRBORO NC13100:20:5800:02:107201:03:1400:01:336200:24:49 01:52:41 
80150 66ALAN MCGILLIVRAYCHARLOTTE NC         01:52:54 
8115C35ERIC ARTHURSWANNANOA NC4600:15:4000:01:487801:03:4700:02:0612100:30:22 01:53:41 
82254 53JAMES WHITLERWINSTON SALEM NC3800:15:0800:02:207601:03:4100:01:2013000:31:49 01:54:15 
8362C34BRIAN DANIELIANARDEN NC14000:21:4100:01:218501:06:0400:01:035300:24:14 01:54:22 
8480C27MICHAEL FELTSTUXEDO NC10200:18:5600:01:4910801:10:2800:00:403700:22:38 01:54:29 
8571 38CLAY DRIGGERSGREENVILLE SC12100:19:5800:01:237101:02:4500:01:0410900:29:25 01:54:33 
86246 46DAVID WARDLAKE TOXAWAY NC5300:16:0200:00:558101:04:4500:00:5713500:32:34 01:55:11 
87262 68FRED WOODWAYNESVILLE NC12900:20:4200:02:068301:05:0400:01:407500:25:58 01:55:29 
8872 32TONY DUDASAINT PETERSBURG FL11900:19:4500:01:148401:05:3600:01:398900:27:20 01:55:31 
89264 45PAUL WORKSAVANNAH GA8200:17:0300:02:118701:06:0800:02:049900:28:43 01:56:07 
90220 34DEREK STANLEYFUQUAY VARINA NC2600:14:1500:01:0310701:09:2000:01:3211800:30:09 01:56:17 
91148 25JOHN MAYNARDAPEX NC11600:19:4200:01:2210101:08:4100:00:467900:26:23 01:56:51 
92300 24MICHAEL DEMETRISASHEVILLE NC13700:21:2900:01:4410001:08:1000:00:515900:24:41 01:56:54 
PlaceBibCodAgNAMECITY/STATERankSWIMT1RankBIKET2RankRUNPENALTYTIMEDQ
93282 36BRADLEY BARRETTLEICESTER NC12800:20:3700:01:358201:05:0400:00:5010400:29:01 01:57:04 
9449 42JOE COMPTONBILTMORE LAKE NC6800:16:4000:03:198001:04:3500:01:4212500:31:04 01:57:18 
9554 47JOHN CORDERLENOIR NC13300:21:0700:02:028601:06:0700:01:079000:27:22 01:57:44 
96119 45PAUL HULMEASHEVILLE NC9300:18:1300:01:5310301:08:5300:01:079200:27:56 01:58:01 
97199 49JOHN SANKEYASHEVILLE NC3300:14:3600:02:0911601:12:1800:01:029700:28:33 01:58:36 
98188 21GRAHAM RIGBYCOCKEYSVILLE MD14400:22:5300:02:239301:07:1300:00:387000:25:41 01:58:47 
99288 20LEONARD DINARDOHENDERSONVILLE NC13500:21:1400:01:4310201:08:4700:00:488400:26:45 01:59:16 
10057 15AUSTIN COWARDCASHIERS NC11500:19:4100:02:539001:07:0200:01:3910000:28:51 02:00:04 
101185 28JASON RAYCANDLER NC10600:19:2000:02:559801:07:5700:01:1311400:29:49 02:01:13 
10244 48NEAL CHEEKMOCKSVILLE NC14200:22:4300:01:209201:07:0900:01:1510300:29:00 02:01:25 
103147C34GARREN MAYNARDHUNTERSVILLE NC9700:18:3500:01:2710901:10:3300:00:4812000:30:21 02:01:41 
10423 45STEVE BIGGSCLAYTON NC12200:20:0200:02:159101:07:0700:01:4312400:30:44 02:01:50 
10528 33DOUG BRANCHWAYNESVILLE NC3200:14:3400:01:3811701:12:2400:01:1513600:32:44 02:02:33 
10686 39MARK FRONINGFUQUAY VARINA NC5900:16:2200:02:1611001:11:0100:01:3112900:31:40 02:02:48 
10784 41TIM FRANKASHEVILLE NC5200:16:0100:01:4411501:12:1200:01:3612600:31:27 02:02:58 
108128 39ALAN KIRKPATRICKASHEVILLE NC9000:17:5600:01:2612401:14:1700:02:098800:27:19 02:03:06 
109224 37STEVEN SULLIVANWILSON NC14700:23:0900:02:249401:07:1600:01:2811100:29:33 02:03:48 
110146 39WILL MARKLINMOCKSVILLE NC12600:20:1400:02:359601:07:3200:01:3213300:32:27 02:04:18 
111129 20OREY LANCECANDLER NC15600:29:4500:01:559501:07:2400:00:485600:24:28 02:04:19 
11229MC45JIM BREWERBURNSVILLE NC14600:23:0400:02:4910501:08:5700:01:0411000:29:33 02:05:25 
11370 38THOMAS DONAHUEMABLETON GA12000:19:4700:02:5313601:18:4400:01:453100:22:26 02:05:33 
114232 42ERSKINE THRASHERASHEVILLE NC14900:23:5400:03:549701:07:3300:01:529600:28:28 02:05:38 
115198 41FRANK SANDSASHEVILLE NC11200:19:2700:02:4211901:13:0300:02:0310100:28:59 02:06:13 
116187 52DAVE RICHARDSONGREENVILLE SC13900:21:3100:02:3511101:11:0500:01:5710600:29:13 02:06:19 
11774 32ERIC ENGELBRECHTSIMPSONVILLE SC10900:19:2400:02:0612801:15:0400:01:339400:28:16 02:06:21 
118252 54CHARLES WHEELERWOODBINE MD12500:20:0900:02:3112001:13:0400:01:0011700:30:03 02:06:45 
119176 71TOM PLAUTMARSHALL NC12300:20:0400:03:0311201:11:1100:02:3311500:29:55 02:06:46 
120228 39ANDY TAYLORCANDLER NC11300:19:3200:03:0610401:08:5700:02:1113700:33:03 02:06:48 
12199 54JAMES GRAZIANOASHEVILLE NC10700:19:2100:01:5411801:12:5000:01:2112800:31:34 02:06:59 
122260MC55NATHAN WILLIAMSLEICESTER NC8300:17:0600:01:4312101:13:1600:01:2614000:33:49 02:07:18 
123210 48DAVID SHRADERFLETCHER NC13800:21:2900:02:5613201:16:0000:01:227600:26:19 02:08:04 
PlaceBibCodAgNAMECITY/STATERankSWIMT1RankBIKET2RankRUNPENALTYTIMEDQ
124190C22CHRIS RITTENHOUSEPINE BLUFF AR10000:18:4700:02:4412901:15:3400:01:0811900:30:12 02:08:23 
1251 36ALFONSO ABAD MANCHENOGREENSBORO NC7700:16:5400:01:4314301:22:1400:01:298700:26:57 02:09:16 
126261 31JAY WILLIFORDHIGH POINT NC13600:21:1900:02:4712201:13:5700:01:1812300:30:36 02:09:54 
12714MC52LARRY ARMORARDEN NC8900:17:4800:03:5312701:14:2700:01:5413200:32:07 02:10:08 
12866 24DAVID DEMASICHARLOTTE NC9600:18:3500:03:5614501:23:4200:00:584500:23:37 02:10:46 
129265 52JEFF YANCEYASHEVILLE NC15100:24:5100:03:4110601:09:1500:01:4112700:31:28 02:10:54 
130117MC57HENRY HINEBRENTWOOD TN8600:17:3400:01:5312601:14:2600:03:0414200:34:28 02:11:25 
131244 39TOM WALSHCHARLOTTE NC7200:16:4600:03:0113901:20:0700:02:0411300:29:45 02:11:40 
132287 43ED WATERSROME GA6600:16:3700:03:4912501:14:2500:01:0714500:36:56 02:12:50 
1333MC50KENET ADAMSONASHEVILLE NC2400:14:1300:03:0313401:17:5900:01:5114800:37:19 02:14:23 
13436C37W. ROSS BRYANTUSCALOOSA AL4800:15:5200:01:3814401:22:3300:01:1713900:33:08 02:14:25 
135172 38JOHN PALKOARDEN NC10800:19:2200:02:3313701:18:4600:01:2313400:32:31 02:14:34 
136253 28JOSEPH WHEELERWOODBINE MD14500:22:5600:04:3813301:17:4100:01:009500:28:23 02:14:36 
137235 47TIMOTHY TREBLEPALM HARBOR FL15400:27:5500:03:3411301:11:3500:02:1711600:30:00 02:15:18 
138107 43RICHARD HARSCHCLYDE NC14800:23:0900:02:4513001:15:4200:02:1113100:31:52 02:15:38 
139247 48TIM WEEKSSUWANEE GA12700:20:2900:02:2411401:12:1100:02:3514900:38:23 02:16:01 
14061C36KEVIN DALEETOWAH NC15300:25:2900:02:0314101:21:4600:00:5510200:28:59 02:19:10 
141193C19MATT ROBERSONCANDLER NC14300:22:4400:03:0613501:18:1600:01:2414100:34:06 02:19:33 
1428 39CHRIS ANGELLCARY NC7500:16:5200:04:2613801:19:1000:02:4715000:38:26 02:21:39 
143294 57ELBERT BROWN, JR.ASHEVILLE NC13000:20:4900:04:4113101:15:5400:04:1314400:36:25 02:22:00 
14481 40DANIEL FOSTERASHEVILLE NC7100:16:4300:02:0715301:37:4200:01:166700:25:16 02:23:02 
145251 25ANDREW WHEELERTAKOMA PARK MD15000:24:1700:03:2814201:21:5900:00:5313800:33:06 02:23:41 
14683 30ROBERT FRANCISBLACK MOUNTAIN NC10100:18:4800:03:0615001:34:1600:01:417700:26:20 02:24:09 
1479 63STEPHEN ARAGONSTATESVILLE NC13400:21:1000:06:1212301:14:0000:04:4115100:42:21 02:28:23 
148112 37SAM HENRYASHEVILLE NC8500:17:3400:03:5015201:36:4000:01:5010500:29:04 02:28:57 
149208 24JAMES SHEPPARDCHARLOTTE NC9500:18:2500:05:1614801:27:1700:01:5814700:37:17 02:30:11 
15038 41JOHN BURKEWILMINGTON NC13200:20:5900:02:4214901:29:3600:00:4914600:37:00 02:31:04 
151180 35JIMMY POWELLMONETA VA14100:22:0200:03:4814001:20:5500:01:3815300:43:31 02:31:51 
152230 50MIKE TAYLORGAINESVILLE GA15500:29:1500:01:4614601:25:0100:01:4214300:34:36 02:32:19 
153182 24EUGENE PURCELLCHARLOTTE NC10400:18:5900:05:4315401:41:3700:00:4712200:30:33 02:37:38 
154151 59BILL MCKENZIE, JR.HIGH POINT NC15200:24:5700:02:2614701:26:1100:01:5015200:42:24 02:37:47 
PlaceBibCodAgNAMECITY/STATERankSWIMT1RankBIKET2RankRUNPENALTYTIMEDQ
15548 54IAIN CLELLANDBLACKSBURG VA2300:14:0000:16:4015101:34:3400:02:0115400:43:42 02:50:56 
156242 39ARI WAJNBERGBOILING SPRINGS SC10500:19:1500:02:08        
157157 53JOHN MIKOSPRINGFIELD VA4000:15:10         

** Results are for the private use of participants and are the Intellectual Property of Set Up Events. Unauthorized use of these results is prohibited.